Weather at Aerodrom "13.Maj"

Public forecast

Using degrees Celsius for public forecast. Weather courtesy of forecast.io.

Closest aviation weather report (METAR) to Aerodrom "13.Maj"

Closest report is Belgrade Nikola Tesla Airport, 3.5 nm (6.5 km) S. Retrieved 2021/01/19 10:30 UTC (11 minutes ago):

LYBE 191030Z 18006KT CAVOK 02/M03 Q1025 R12/1///95 NOSIG

Closest aviation forecast (TAF) to Aerodrom "13.Maj"

Closest forecast is Belgrade Nikola Tesla Airport, 3.5 nm (6.5 km) S. Retrieved 2021/01/19 06:25 UTC (4 hours ago):

TAF LYBE 190500Z 1906/2006 18006KT 9999 BKN033 TX01/1912Z TNM03/1906Z